sensor_id;sensor_type;location;lat;lon;timestamp;pressure;altitude;pressure_sealevel;temperature;humidity
7407;BME280;3745;56.964;24.128;2023-08-17T00:01:55;101970.16;;;21.14;100.00
7407;BME280;3745;56.964;24.128;2023-08-17T00:04:20;101918.09;;;20.87;100.00
7407;BME280;3745;56.964;24.128;2023-08-17T00:06:46;101874.66;;;20.60;100.00
7407;BME280;3745;56.964;24.128;2023-08-17T00:09:12;101857.53;;;20.58;100.00
7407;BME280;3745;56.964;24.128;2023-08-17T00:11:38;101900.94;;;20.86;100.00
7407;BME280;3745;56.964;24.128;2023-08-17T00:14:04;101855.81;;;20.55;100.00
7407;BME280;3745;56.964;24.128;2023-08-17T00:16:30;101834.56;;;20.41;100.00
7407;BME280;3745;56.964;24.128;2023-08-17T00:18:56;101849.97;;;20.41;100.00
7407;BME280;3745;56.964;24.128;2023-08-17T00:21:22;102025.72;;;21.36;100.00
7407;BME280;3745;56.964;24.128;2023-08-17T00:23:48;102036.03;;;21.33;100.00
7407;BME280;3745;56.964;24.128;2023-08-17T00:26:14;101865.44;;;20.38;100.00
7407;BME280;3745;56.964;24.128;2023-08-17T00:28:40;101884.09;;;20.58;100.00
7407;BME280;3745;56.964;24.128;2023-08-17T00:31:05;101957.50;;;20.92;100.00
7407;BME280;3745;56.964;24.128;2023-08-17T00:33:31;101814.38;;;19.98;100.00
7407;BME280;3745;56.964;24.128;2023-08-17T00:35:57;101961.84;;;20.86;100.00
7407;BME280;3745;56.964;24.128;2023-08-17T00:38:22;101961.91;;;20.81;100.00
7407;BME280;3745;56.964;24.128;2023-08-17T00:40:48;101859.53;;;20.25;100.00
7407;BME280;3745;56.964;24.128;2023-08-17T00:43:13;101865.50;;;20.32;100.00
7407;BME280;3745;56.964;24.128;2023-08-17T00:45:40;101960.22;;;20.79;100.00
7407;BME280;3745;56.964;24.128;2023-08-17T00:48:06;101956.84;;;20.72;100.00
7407;BME280;3745;56.964;24.128;2023-08-17T00:50:34;102049.06;;;21.22;100.00
7407;BME280;3745;56.964;24.128;2023-08-17T00:53:00;101857.19;;;20.02;100.00
7407;BME280;3745;56.964;24.128;2023-08-17T00:55:27;101954.53;;;20.48;100.00
7407;BME280;3745;56.964;24.128;2023-08-17T00:57:56;102028.00;;;20.79;100.00
7407;BME280;3745;56.964;24.128;2023-08-17T01:00:21;101927.19;;;20.35;100.00
7407;BME280;3745;56.964;24.128;2023-08-17T01:02:49;101978.34;;;20.65;100.00
7407;BME280;3745;56.964;24.128;2023-08-17T01:05:15;101952.78;;;20.50;100.00
7407;BME280;3745;56.964;24.128;2023-08-17T01:07:40;101916.97;;;20.29;100.00
7407;BME280;3745;56.964;24.128;2023-08-17T01:10:06;101937.44;;;20.41;100.00
7407;BME280;3745;56.964;24.128;2023-08-17T01:12:41;101869.22;;;19.94;100.00
7407;BME280;3745;56.964;24.128;2023-08-17T01:17:44;101989.50;;;20.67;100.00
7407;BME280;3745;56.964;24.128;2023-08-17T01:20:14;101973.31;;;20.53;100.00
7407;BME280;3745;56.964;24.128;2023-08-17T01:22:41;101960.47;;;20.54;100.00
7407;BME280;3745;56.964;24.128;2023-08-17T01:25:10;101899.03;;;20.17;100.00
7407;BME280;3745;56.964;24.128;2023-08-17T01:27:44;101830.00;;;19.73;100.00
7407;BME280;3745;56.964;24.128;2023-08-17T01:30:14;102061.22;;;21.03;100.00
7407;BME280;3745;56.964;24.128;2023-08-17T01:32:54;101877.75;;;19.96;100.00
7407;BME280;3745;56.964;24.128;2023-08-17T01:35:28;101973.31;;;20.53;100.00
7407;BME280;3745;56.964;24.128;2023-08-17T01:38:00;101968.22;;;20.50;100.00
7407;BME280;3745;56.964;24.128;2023-08-17T01:40:31;101978.53;;;20.47;100.00
7407;BME280;3745;56.964;24.128;2023-08-17T01:42:58;101981.97;;;20.43;100.00
7407;BME280;3745;56.964;24.128;2023-08-17T01:45:25;101982.00;;;20.41;100.00
7407;BME280;3745;56.964;24.128;2023-08-17T01:47:50;102055.38;;;20.83;100.00
7407;BME280;3745;56.964;24.128;2023-08-17T01:50:17;101897.53;;;19.91;100.00
7407;BME280;3745;56.964;24.128;2023-08-17T01:52:43;102041.69;;;20.81;100.00
7407;BME280;3745;56.964;24.128;2023-08-17T01:55:09;101978.56;;;20.44;100.00
7407;BME280;3745;56.964;24.128;2023-08-17T01:57:34;102070.78;;;20.89;100.00
7407;BME280;3745;56.964;24.128;2023-08-17T02:00:03;101925.75;;;19.97;100.00
7407;BME280;3745;56.964;24.128;2023-08-17T02:02:30;101905.28;;;19.85;100.00
7407;BME280;3745;56.964;24.128;2023-08-17T02:04:56;102062.19;;;20.90;100.00
7407;BME280;3745;56.964;24.128;2023-08-17T02:07:22;102002.47;;;20.52;100.00
7407;BME280;3745;56.964;24.128;2023-08-17T02:09:47;101827.63;;;19.50;100.00
7407;BME280;3745;56.964;24.128;2023-08-17T02:12:13;101913.75;;;19.96;100.00
7407;BME280;3745;56.964;24.128;2023-08-17T02:14:39;101977.69;;;20.43;100.00
7407;BME280;3745;56.964;24.128;2023-08-17T02:17:04;102065.56;;;20.95;100.00
7407;BME280;3745;56.964;24.128;2023-08-17T02:19:31;102062.19;;;20.93;100.00
7407;BME280;3745;56.964;24.128;2023-08-17T02:21:58;101910.19;;;20.13;100.00
7407;BME280;3745;56.964;24.128;2023-08-17T02:24:25;101860.75;;;19.86;100.00
7407;BME280;3745;56.964;24.128;2023-08-17T02:26:50;101873.50;;;19.95;100.00
7407;BME280;3745;56.964;24.128;2023-08-17T02:29:16;101917.88;;;20.19;100.00
7407;BME280;3745;56.964;24.128;2023-08-17T02:31:41;101969.06;;;20.50;100.00
7407;BME280;3745;56.964;24.128;2023-08-17T02:34:07;101823.25;;;19.61;100.00
7407;BME280;3745;56.964;24.128;2023-08-17T02:36:33;101863.38;;;19.76;100.00
7407;BME280;3745;56.964;24.128;2023-08-17T02:38:59;101908.59;;;20.02;100.00
7407;BME280;3745;56.964;24.128;2023-08-17T02:41:24;102015.25;;;20.61;100.00
7407;BME280;3745;56.964;24.128;2023-08-17T02:43:50;101899.31;;;19.83;100.00
7407;BME280;3745;56.964;24.128;2023-08-17T02:46:16;101897.56;;;19.90;100.00
7407;BME280;3745;56.964;24.128;2023-08-17T02:48:41;102058.81;;;20.85;100.00
7407;BME280;3745;56.964;24.128;2023-08-17T02:51:07;101971.81;;;20.25;100.00
7407;BME280;3745;56.964;24.128;2023-08-17T02:53:32;101832.00;;;19.27;100.00
7407;BME280;3745;56.964;24.128;2023-08-17T02:55:58;101980.53;;;20.09;100.00
7407;BME280;3745;56.964;24.128;2023-08-17T02:58:24;102062.47;;;20.57;100.00
7407;BME280;3745;56.964;24.128;2023-08-17T03:00:52;101849.16;;;19.22;100.00
7407;BME280;3745;56.964;24.128;2023-08-17T03:03:19;101928.53;;;19.67;100.00
7407;BME280;3745;56.964;24.128;2023-08-17T03:05:44;102088.28;;;20.48;100.00
7407;BME280;3745;56.964;24.128;2023-08-17T03:08:10;102018.31;;;19.91;100.00
7407;BME280;3745;56.964;24.128;2023-08-17T03:10:37;101887.69;;;19.13;100.00
7407;BME280;3745;56.964;24.128;2023-08-17T03:13:02;101868.03;;;19.09;100.00
7407;BME280;3745;56.964;24.128;2023-08-17T03:15:28;102001.19;;;19.87;100.00
7407;BME280;3745;56.964;24.128;2023-08-17T03:17:54;101868.06;;;19.00;100.00
7407;BME280;3745;56.964;24.128;2023-08-17T03:20:19;102008.88;;;19.93;100.00
7407;BME280;3745;56.964;24.128;2023-08-17T03:22:45;101889.31;;;19.26;100.00
7407;BME280;3745;56.964;24.128;2023-08-17T03:25:10;102103.72;;;20.45;100.00
7407;BME280;3745;56.964;24.128;2023-08-17T03:27:36;101873.13;;;19.18;100.00
7407;BME280;3745;56.964;24.128;2023-08-17T03:30:03;101881.63;;;19.23;100.00
7407;BME280;3745;56.964;24.128;2023-08-17T03:32:29;101845.81;;;18.99;100.00
7407;BME280;3745;56.964;24.128;2023-08-17T03:34:54;101915.81;;;19.46;100.00
7407;BME280;3745;56.964;24.128;2023-08-17T03:37:20;102014.81;;;20.05;100.00
7407;BME280;3745;56.964;24.128;2023-08-17T03:39:46;101972.13;;;19.76;100.00
7407;BME280;3745;56.964;24.128;2023-08-17T03:42:11;101866.28;;;19.15;100.00
7407;BME280;3745;56.964;24.128;2023-08-17T03:44:37;102079.69;;;20.49;100.00
7407;BME280;3745;56.964;24.128;2023-08-17T03:47:03;101998.53;;;20.04;100.00
7407;BME280;3745;56.964;24.128;2023-08-17T03:49:28;102032.66;;;20.27;100.00
7407;BME280;3745;56.964;24.128;2023-08-17T03:51:54;101943.06;;;19.71;100.00
7407;BME280;3745;56.964;24.128;2023-08-17T03:54:19;101997.72;;;19.97;100.00
7407;BME280;3745;56.964;24.128;2023-08-17T03:56:45;101889.28;;;19.35;100.00
7407;BME280;3745;56.964;24.128;2023-08-17T03:59:10;101900.44;;;19.40;100.00
7407;BME280;3745;56.964;24.128;2023-08-17T04:01:36;101921.75;;;19.54;100.00
7407;BME280;3745;56.964;24.128;2023-08-17T04:04:01;101855.22;;;19.03;100.00
7407;BME280;3745;56.964;24.128;2023-08-17T04:06:27;102087.44;;;20.43;100.00
7407;BME280;3745;56.964;24.128;2023-08-17T04:08:53;102093.41;;;20.48;100.00
7407;BME280;3745;56.964;24.128;2023-08-17T04:11:18;101869.75;;;19.10;100.00
7407;BME280;3745;56.964;24.128;2023-08-17T04:13:44;101975.59;;;19.69;100.00
7407;BME280;3745;56.964;24.128;2023-08-17T04:16:09;102013.13;;;20.00;100.00
7407;BME280;3745;56.964;24.128;2023-08-17T04:18:35;102002.84;;;19.99;100.00
7407;BME280;3745;56.964;24.128;2023-08-17T04:21:01;101941.38;;;19.64;100.00
7407;BME280;3745;56.964;24.128;2023-08-17T04:23:27;101963.53;;;19.86;100.00
7407;BME280;3745;56.964;24.128;2023-08-17T04:25:53;101938.78;;;19.72;100.00
7407;BME280;3745;56.964;24.128;2023-08-17T04:28:20;102014.69;;;20.23;100.00
7407;BME280;3745;56.964;24.128;2023-08-17T04:30:45;101879.81;;;19.52;100.00
7407;BME280;3745;56.964;24.128;2023-08-17T04:33:11;101995.91;;;20.15;100.00
7407;BME280;3745;56.964;24.128;2023-08-17T04:35:38;101867.00;;;19.38;100.00
7407;BME280;3745;56.964;24.128;2023-08-17T04:38:04;102072.78;;;20.55;100.00
7407;BME280;3745;56.964;24.128;2023-08-17T04:40:30;101999.31;;;20.14;100.00
7407;BME280;3745;56.964;24.128;2023-08-17T04:42:56;101904.59;;;19.58;100.00
7407;BME280;3745;56.964;24.128;2023-08-17T04:45:22;101982.16;;;20.16;100.00
7407;BME280;3745;56.964;24.128;2023-08-17T04:47:48;101958.31;;;19.98;100.00
7407;BME280;3745;56.964;24.128;2023-08-17T04:50:15;101859.34;;;19.43;100.00
7407;BME280;3745;56.964;24.128;2023-08-17T04:52:45;102076.03;;;20.77;100.00
7407;BME280;3745;56.964;24.128;2023-08-17T04:55:12;101861.00;;;19.50;100.00
7407;BME280;3745;56.964;24.128;2023-08-17T04:57:37;101932.66;;;19.92;100.00
7407;BME280;3745;56.964;24.128;2023-08-17T05:00:04;102077.75;;;20.78;100.00
7407;BME280;3745;56.964;24.128;2023-08-17T05:02:39;102061.56;;;20.61;100.00
7407;BME280;3745;56.964;24.128;2023-08-17T05:05:10;102005.19;;;20.35;100.00
7407;BME280;3745;56.964;24.128;2023-08-17T05:07:36;101890.00;;;19.64;100.00
7407;BME280;3745;56.964;24.128;2023-08-17T05:10:10;102098.16;;;20.99;100.00
7407;BME280;3745;56.964;24.128;2023-08-17T05:12:35;101889.13;;;19.71;100.00
7407;BME280;3745;56.964;24.128;2023-08-17T05:15:01;102021.28;;;20.60;100.00
7407;BME280;3745;56.964;24.128;2023-08-17T05:17:27;102058.81;;;20.85;100.00
7407;BME280;3745;56.964;24.128;2023-08-17T05:19:52;102033.22;;;20.70;100.00
7407;BME280;3745;56.964;24.128;2023-08-17T05:22:18;101903.44;;;19.99;100.00
7407;BME280;3745;56.964;24.128;2023-08-17T05:24:43;101857.34;;;19.78;100.00
7407;BME280;3745;56.964;24.128;2023-08-17T05:27:09;102084.28;;;21.19;100.00
7407;BME280;3745;56.964;24.128;2023-08-17T05:29:35;101921.25;;;20.30;100.00
7407;BME280;3745;56.964;24.128;2023-08-17T05:32:01;102009.06;;;20.83;100.00
7407;BME280;3745;56.964;24.128;2023-08-17T05:34:26;102017.44;;;21.06;100.00
7407;BME280;3745;56.964;24.128;2023-08-17T05:36:52;101882.59;;;20.39;100.00
7407;BME280;3745;56.964;24.128;2023-08-17T05:39:17;102018.06;;;21.31;100.00
7407;BME280;3745;56.964;24.128;2023-08-17T05:41:43;101940.25;;;21.00;100.00
7407;BME280;3745;56.964;24.128;2023-08-17T05:44:09;101872.00;;;20.66;100.00
7407;BME280;3745;56.964;24.128;2023-08-17T05:46:38;101877.09;;;20.72;100.00
7407;BME280;3745;56.964;24.128;2023-08-17T05:49:04;101948.63;;;21.21;100.00
7407;BME280;3745;56.964;24.128;2023-08-17T05:51:29;101964.06;;;21.22;100.00
7407;BME280;3745;56.964;24.128;2023-08-17T05:53:55;101958.25;;;21.02;100.00
7407;BME280;3745;56.964;24.128;2023-08-17T05:56:21;102030.97;;;21.28;100.00
7407;BME280;3745;56.964;24.128;2023-08-17T05:58:46;101947.50;;;20.62;100.00
7407;BME280;3745;56.964;24.128;2023-08-17T06:01:12;101971.44;;;20.73;100.00
7407;BME280;3745;56.964;24.128;2023-08-17T06:03:38;102038.91;;;21.04;100.00
7407;BME280;3745;56.964;24.128;2023-08-17T06:06:04;101907.47;;;20.34;100.00
7407;BME280;3745;56.964;24.128;2023-08-17T06:08:32;101941.63;;;20.51;100.00
7407;BME280;3745;56.964;24.128;2023-08-17T06:10:58;101988.56;;;20.74;100.00
7407;BME280;3745;56.964;24.128;2023-08-17T06:13:24;102047.34;;;21.21;100.00
7407;BME280;3745;56.964;24.128;2023-08-17T06:15:52;101979.91;;;20.84;100.00
7407;BME280;3745;56.964;24.128;2023-08-17T06:18:17;101901.38;;;20.44;100.00
7407;BME280;3745;56.964;24.128;2023-08-17T06:20:43;101904.06;;;20.35;100.00
7407;BME280;3745;56.964;24.128;2023-08-17T06:23:11;101905.69;;;20.40;100.00
7407;BME280;3745;56.964;24.128;2023-08-17T06:25:37;102048.13;;;21.28;100.00
7407;BME280;3745;56.964;24.128;2023-08-17T06:28:02;101897.91;;;20.51;100.00
7407;BME280;3745;56.964;24.128;2023-08-17T06:30:28;101947.41;;;20.74;100.00
7407;BME280;3745;56.964;24.128;2023-08-17T06:32:54;101998.56;;;21.01;100.00
7407;BME280;3745;56.964;24.128;2023-08-17T06:35:19;101901.28;;;20.58;100.00
7407;BME280;3745;56.964;24.128;2023-08-17T06:37:45;102052.06;;;21.59;100.00
7407;BME280;3745;56.964;24.128;2023-08-17T06:40:11;102000.00;;;21.33;100.00
7407;BME280;3745;56.964;24.128;2023-08-17T06:42:36;101930.00;;;20.97;100.00
7407;BME280;3745;56.964;24.128;2023-08-17T06:45:03;101960.59;;;21.25;100.00
7407;BME280;3745;56.964;24.128;2023-08-17T06:47:29;101923.91;;;21.01;100.00
7407;BME280;3745;56.964;24.128;2023-08-17T06:49:55;102124.28;;;22.25;100.00
7407;BME280;3745;56.964;24.128;2023-08-17T06:52:20;102012.69;;;21.48;100.00
7407;BME280;3745;56.964;24.128;2023-08-17T06:54:46;102025.44;;;21.57;100.00
7407;BME280;3745;56.964;24.128;2023-08-17T06:57:12;102073.13;;;21.94;100.00
7407;BME280;3745;56.964;24.128;2023-08-17T06:59:37;102055.16;;;21.87;100.00
7407;BME280;3745;56.964;24.128;2023-08-17T07:02:03;101979.03;;;21.60;100.00
7407;BME280;3745;56.964;24.128;2023-08-17T07:04:29;102023.19;;;22.01;100.00
7407;BME280;3745;56.964;24.128;2023-08-17T07:06:54;101943.72;;;21.68;100.00
7407;BME280;3745;56.964;24.128;2023-08-17T07:09:20;101894.41;;;21.31;100.00
7407;BME280;3745;56.964;24.128;2023-08-17T07:11:46;101941.28;;;21.59;100.00
7407;BME280;3745;56.964;24.128;2023-08-17T07:14:11;102099.63;;;22.65;100.00
7407;BME280;3745;56.964;24.128;2023-08-17T07:16:37;102062.19;;;22.37;100.00
7407;BME280;3745;56.964;24.128;2023-08-17T07:19:03;102030.78;;;22.10;100.00
7407;BME280;3745;56.964;24.128;2023-08-17T07:21:29;102045.31;;;22.18;100.00
7407;BME280;3745;56.964;24.128;2023-08-17T07:23:55;101884.25;;;21.22;100.00
7407;BME280;3745;56.964;24.128;2023-08-17T07:26:21;102064.72;;;22.41;100.00
7407;BME280;3745;56.964;24.128;2023-08-17T07:28:48;101894.41;;;21.31;100.00
7407;BME280;3745;56.964;24.128;2023-08-17T07:31:14;101971.88;;;21.80;100.00
7407;BME280;3745;56.964;24.128;2023-08-17T07:33:39;101896.75;;;21.48;100.00
7407;BME280;3745;56.964;24.128;2023-08-17T07:36:05;101954.56;;;21.91;100.00
7407;BME280;3745;56.964;24.128;2023-08-17T07:38:31;101964.13;;;21.83;100.00
7407;BME280;3745;56.964;24.128;2023-08-17T07:40:57;101903.63;;;21.49;100.00
7407;BME280;3745;56.964;24.128;2023-08-17T07:43:23;101959.91;;;21.76;100.00
7407;BME280;3745;56.964;24.128;2023-08-17T07:45:55;102118.47;;;22.73;100.00
7407;BME280;3745;56.964;24.128;2023-08-17T07:48:21;101937.63;;;21.72;100.00
7407;BME280;3745;56.964;24.128;2023-08-17T07:50:51;102129.31;;;22.92;100.00
7407;BME280;3745;56.964;24.128;2023-08-17T07:53:18;101973.38;;;21.99;100.00
7407;BME280;3745;56.964;24.128;2023-08-17T07:55:43;102118.22;;;22.88;100.00
7407;BME280;3745;56.964;24.128;2023-08-17T07:58:09;101995.31;;;22.25;100.00
7407;BME280;3745;56.964;24.128;2023-08-17T08:00:35;102007.09;;;22.41;100.00
7407;BME280;3745;56.964;24.128;2023-08-17T08:03:00;102083.53;;;23.01;100.00
7407;BME280;3745;56.964;24.128;2023-08-17T08:05:26;102137.53;;;23.64;100.00
7407;BME280;3745;56.964;24.128;2023-08-17T08:07:52;102040.25;;;23.15;100.00
7407;BME280;3745;56.964;24.128;2023-08-17T08:10:18;102135.34;;;23.87;100.00
7407;BME280;3745;56.964;24.128;2023-08-17T08:12:44;101982.16;;;22.90;100.00
7407;BME280;3745;56.964;24.128;2023-08-17T08:15:09;102002.88;;;22.87;100.00
7407;BME280;3745;56.964;24.128;2023-08-17T08:17:35;102059.19;;;23.14;100.00
7407;BME280;3745;56.964;24.128;2023-08-17T08:20:01;102057.81;;;22.95;100.00
7407;BME280;3745;56.964;24.128;2023-08-17T08:22:27;101968.66;;;22.24;100.00
7407;BME280;3745;56.964;24.128;2023-08-17T08:24:53;102010.44;;;22.46;100.00
7407;BME280;3745;56.964;24.128;2023-08-17T08:27:19;102145.16;;;23.22;100.00
7407;BME280;3745;56.964;24.128;2023-08-17T08:29:45;102145.47;;;23.04;100.00
7407;BME280;3745;56.964;24.128;2023-08-17T08:32:10;101968.16;;;22.02;100.00
7407;BME280;3745;56.964;24.128;2023-08-17T08:34:36;102155.69;;;23.10;100.00
7407;BME280;3745;56.964;24.128;2023-08-17T08:37:09;102070.38;;;22.66;100.00
7407;BME280;3745;56.964;24.128;2023-08-17T08:39:48;102149.50;;;23.20;100.00
7407;BME280;3745;56.964;24.128;2023-08-17T08:42:18;102074.84;;;23.05;100.00
7407;BME280;3745;56.964;24.128;2023-08-17T08:44:44;102043.16;;;22.97;100.00
7407;BME280;3745;56.964;24.128;2023-08-17T08:47:11;102129.09;;;23.56;100.00
7407;BME280;3745;56.964;24.128;2023-08-17T08:50:01;101981.47;;;22.82;100.00
7407;BME280;3745;56.964;24.128;2023-08-17T08:52:35;102133.59;;;23.89;100.00
7407;BME280;3745;56.964;24.128;2023-08-17T08:55:26;102038.13;;;23.36;100.00
7407;BME280;3745;56.964;24.128;2023-08-17T08:57:52;102007.63;;;23.08;100.00
7407;BME280;3745;56.964;24.128;2023-08-17T09:00:20;102146.09;;;23.66;100.00
7407;BME280;3745;56.964;24.128;2023-08-17T09:02:52;101933.13;;;22.40;100.00
7407;BME280;3745;56.964;24.128;2023-08-17T09:05:19;102026.88;;;22.92;100.00
7407;BME280;3745;56.964;24.128;2023-08-17T09:07:48;102008.16;;;22.81;100.00
7407;BME280;3745;56.964;24.128;2023-08-17T09:10:14;101928.13;;;22.31;100.00
7407;BME280;3745;56.964;24.128;2023-08-17T09:12:42;102101.91;;;23.34;100.00
7407;BME280;3745;56.964;24.128;2023-08-17T09:15:08;101950.16;;;22.50;100.00
7407;BME280;3745;56.964;24.128;2023-08-17T09:17:34;101969.00;;;22.55;100.00
7407;BME280;3745;56.964;24.128;2023-08-17T09:20:00;101950.53;;;22.29;100.00
7407;BME280;3745;56.964;24.128;2023-08-17T09:22:45;101928.84;;;21.85;100.00
7407;BME280;3745;56.964;24.128;2023-08-17T09:25:59;101967.69;;;21.73;100.00
7407;BME280;3745;56.964;24.128;2023-08-17T09:28:47;102168.09;;;22.90;100.00
7407;BME280;3745;56.964;24.128;2023-08-17T09:31:58;101917.50;;;21.37;100.00
7407;BME280;3745;56.964;24.128;2023-08-17T09:34:24;102173.00;;;23.05;100.00
7407;BME280;3745;56.964;24.128;2023-08-17T09:36:54;102021.84;;;22.33;100.00
7407;BME280;3745;56.964;24.128;2023-08-17T09:39:20;102064.31;;;22.68;100.00
7407;BME280;3745;56.964;24.128;2023-08-17T09:41:46;102070.63;;;23.01;100.00
7407;BME280;3745;56.964;24.128;2023-08-17T09:44:12;101909.72;;;22.01;100.00
7407;BME280;3745;56.964;24.128;2023-08-17T09:46:37;102091.75;;;23.25;100.00
7407;BME280;3745;56.964;24.128;2023-08-17T09:49:08;101991.75;;;22.84;100.00
7407;BME280;3745;56.964;24.128;2023-08-17T09:51:46;102101.59;;;23.52;100.00
7407;BME280;3745;56.964;24.128;2023-08-17T09:54:24;102177.25;;;24.03;100.00
7407;BME280;3745;56.964;24.128;2023-08-17T09:56:53;102081.47;;;23.66;100.00
7407;BME280;3745;56.964;24.128;2023-08-17T09:59:19;102031.19;;;23.38;100.00
7407;BME280;3745;56.964;24.128;2023-08-17T10:01:50;101965.34;;;22.70;100.00
7407;BME280;3745;56.964;24.128;2023-08-17T10:04:20;102108.78;;;23.35;100.00
7407;BME280;3745;56.964;24.128;2023-08-17T10:06:48;101973.38;;;22.50;100.00
7407;BME280;3745;56.964;24.128;2023-08-17T10:09:25;102114.16;;;23.22;100.00
7407;BME280;3745;56.964;24.128;2023-08-17T10:12:00;101952.34;;;22.24;100.00
7407;BME280;3745;56.964;24.128;2023-08-17T10:14:49;101972.97;;;22.24;100.00
7407;BME280;3745;56.964;24.128;2023-08-17T10:17:26;102134.63;;;23.35;100.00
7407;BME280;3745;56.964;24.128;2023-08-17T10:20:01;102078.53;;;22.92;100.00
7407;BME280;3745;56.964;24.128;2023-08-17T10:22:33;101995.00;;;22.43;100.00
7407;BME280;3745;56.964;24.128;2023-08-17T10:25:04;102078.63;;;22.86;100.00
7407;BME280;3745;56.964;24.128;2023-08-17T10:27:32;102227.50;;;23.47;100.00
7407;BME280;3745;56.964;24.128;2023-08-17T10:29:59;102138.88;;;22.88;100.00
7407;BME280;3745;56.964;24.128;2023-08-17T10:32:41;102012.69;;;22.13;100.00
7407;BME280;3745;56.964;24.128;2023-08-17T10:35:10;102224.09;;;23.42;100.00
7407;BME280;3745;56.964;24.128;2023-08-17T10:37:37;102118.50;;;22.70;100.00
7407;BME280;3745;56.964;24.128;2023-08-17T10:40:04;102070.97;;;22.27;100.00
7407;BME280;3745;56.964;24.128;2023-08-17T10:42:47;102013.78;;;21.97;100.00
7407;BME280;3745;56.964;24.128;2023-08-17T10:47:47;102030.19;;;21.87;100.00
7407;BME280;3745;56.964;24.128;2023-08-17T10:50:28;102197.97;;;22.47;100.00
7407;BME280;3745;56.964;24.128;2023-08-17T10:52:54;102106.16;;;21.62;100.00
7407;BME280;3745;56.964;24.128;2023-08-17T10:55:45;102222.66;;;21.94;100.00
7407;BME280;3745;56.964;24.128;2023-08-17T10:58:14;102116.91;;;21.17;100.00
7407;BME280;3745;56.964;24.128;2023-08-17T11:00:45;102081.94;;;20.90;100.00
7407;BME280;3745;56.964;24.128;2023-08-17T11:03:24;102175.28;;;21.18;100.00
7407;BME280;3745;56.964;24.128;2023-08-17T11:06:14;102375.00;;;21.66;100.00
7407;BME280;3745;56.964;24.128;2023-08-17T11:09:24;102240.19;;;19.92;100.00
7407;BME280;3745;56.964;24.128;2023-08-17T11:12:00;102208.53;;;19.19;100.00
7407;BME280;3745;56.964;24.128;2023-08-17T11:14:25;102349.81;;;19.49;100.00
7407;BME280;3745;56.964;24.128;2023-08-17T11:16:57;102273.41;;;18.63;100.00
7407;BME280;3745;56.964;24.128;2023-08-17T11:19:23;102419.91;;;19.19;100.00
7407;BME280;3745;56.964;24.128;2023-08-17T11:21:49;102422.31;;;18.84;100.00
7407;BME280;3745;56.964;24.128;2023-08-17T11:24:15;102435.81;;;18.59;100.00
7407;BME280;3745;56.964;24.128;2023-08-17T11:26:41;102430.47;;;18.32;100.00
7407;BME280;3745;56.964;24.128;2023-08-17T11:29:06;102461.44;;;18.56;100.00
7407;BME280;3745;56.964;24.128;2023-08-17T11:31:32;102309.59;;;17.79;100.00
7407;BME280;3745;56.964;24.128;2023-08-17T11:33:58;102442.69;;;18.60;100.00
7407;BME280;3745;56.964;24.128;2023-08-17T11:36:23;102221.31;;;17.34;100.00
7407;BME280;3745;56.964;24.128;2023-08-17T11:38:49;102398.06;;;18.41;100.00
7407;BME280;3745;56.964;24.128;2023-08-17T11:41:22;102431.63;;;18.69;100.00
7407;BME280;3745;56.964;24.128;2023-08-17T11:43:52;102245.41;;;17.55;100.00
7407;BME280;3745;56.964;24.128;2023-08-17T11:46:20;102236.81;;;17.54;100.00
7407;BME280;3745;56.964;24.128;2023-08-17T11:48:47;102257.47;;;17.72;100.00
7407;BME280;3745;56.964;24.128;2023-08-17T11:51:14;102436.00;;;18.89;100.00
7407;BME280;3745;56.964;24.128;2023-08-17T11:53:40;102420.66;;;19.02;100.00
7407;BME280;3745;56.964;24.128;2023-08-17T11:56:06;102309.13;;;18.30;100.00
7407;BME280;3745;56.964;24.128;2023-08-17T11:58:46;102402.69;;;18.99;100.00
7407;BME280;3745;56.964;24.128;2023-08-17T12:01:12;102397.59;;;19.05;100.00
7407;BME280;3745;56.964;24.128;2023-08-17T12:03:39;102407.09;;;19.27;100.00
7407;BME280;3745;56.964;24.128;2023-08-17T12:06:06;102144.03;;;17.92;100.00
7407;BME280;3745;56.964;24.128;2023-08-17T12:08:31;102387.47;;;19.45;100.00
7407;BME280;3745;56.964;24.128;2023-08-17T12:10:58;102376.38;;;19.54;100.00
7407;BME280;3745;56.964;24.128;2023-08-17T12:13:32;102372.09;;;19.67;100.00
7407;BME280;3745;56.964;24.128;2023-08-17T12:15:59;102265.88;;;19.16;100.00
7407;BME280;3745;56.964;24.128;2023-08-17T12:18:25;102346.44;;;19.80;100.00
7407;BME280;3745;56.964;24.128;2023-08-17T12:20:55;102256.53;;;19.44;100.00
7407;BME280;3745;56.964;24.128;2023-08-17T12:23:21;102124.66;;;18.72;100.00
7407;BME280;3745;56.964;24.128;2023-08-17T12:25:54;102107.56;;;18.71;100.00
7407;BME280;3745;56.964;24.128;2023-08-17T12:28:21;102318.13;;;20.17;100.00
7407;BME280;3745;56.964;24.128;2023-08-17T12:30:47;102289.84;;;20.20;100.00
7407;BME280;3745;56.964;24.128;2023-08-17T12:33:22;102264.13;;;20.15;100.00
7407;BME280;3745;56.964;24.128;2023-08-17T12:35:48;102276.97;;;20.35;100.00
7407;BME280;3745;56.964;24.128;2023-08-17T12:38:19;102172.56;;;19.76;100.00
7407;BME280;3745;56.964;24.128;2023-08-17T12:40:45;102266.63;;;20.44;100.00
7407;BME280;3745;56.964;24.128;2023-08-17T12:43:11;102302.50;;;20.80;100.00
7407;BME280;3745;56.964;24.128;2023-08-17T12:45:36;102243.50;;;20.38;100.00
7407;BME280;3745;56.964;24.128;2023-08-17T12:48:02;102282.84;;;20.61;100.00
7407;BME280;3745;56.964;24.128;2023-08-17T12:50:27;102170.75;;;20.04;100.00
7407;BME280;3745;56.964;24.128;2023-08-17T12:52:53;102185.28;;;20.16;100.00
7407;BME280;3745;56.964;24.128;2023-08-17T12:55:19;102251.03;;;20.77;100.00
7407;BME280;3745;56.964;24.128;2023-08-17T12:57:44;102144.97;;;20.30;100.00
7407;BME280;3745;56.964;24.128;2023-08-17T13:00:11;102172.19;;;20.64;100.00